KLM96H EDDF-EHAM
Flight info
| Callsign | KLM96H |
|---|---|
| Flight time | 0h 49m |
| Altitude | 28000 |
| Route | MARUN8M/25C MARUN Y152 ARPEG Z850 ABILU DCT NORKU |
| Aircraft | E75L/M-SDE3GILORVW/S |
Departure
| Time | 2026-05-06 13:12 |
|---|---|
| Airport | Frankfurt Main Airport (EDDF) |
Arrival
| Time | 2026-05-06 14:02 |
|---|---|
| Airport | Amsterdam Airport Schiphol (EHAM) |
| Time | Latitude | Longitude | Altitude | Speed | Heading |
|---|---|---|---|---|---|
| 2026-05-06 12:23 | 50.04982 | 8.59993 | 367 ft | 0 kts | 297° |
| 2026-05-06 13:01 | 50.04980 | 8.59998 | 367 ft | 3 kts | 294° |
| 2026-05-06 13:02 | 50.04975 | 8.60009 | 367 ft | 4 kts | 316° |
| 2026-05-06 13:02 | 50.04961 | 8.60031 | 367 ft | 4 kts | 301° |
| 2026-05-06 13:02 | 50.04961 | 8.60066 | 368 ft | 3 kts | 250° |
| 2026-05-06 13:02 | 50.04959 | 8.60055 | 368 ft | 4 kts | 250° |
| 2026-05-06 13:03 | 50.04949 | 8.60016 | 368 ft | 4 kts | 250° |
| 2026-05-06 13:03 | 50.04940 | 8.59976 | 368 ft | 4 kts | 250° |
| 2026-05-06 13:03 | 50.04931 | 8.59937 | 368 ft | 4 kts | 250° |
| 2026-05-06 13:03 | 50.04922 | 8.59900 | 368 ft | 2 kts | 250° |
| 2026-05-06 13:04 | 50.04921 | 8.59899 | 368 ft | 0 kts | 250° |
| 2026-05-06 13:07 | 50.04921 | 8.59896 | 368 ft | 1 kts | 250° |
| 2026-05-06 13:08 | 50.04915 | 8.59873 | 368 ft | 3 kts | 250° |
| 2026-05-06 13:08 | 50.04904 | 8.59827 | 368 ft | 6 kts | 250° |
| 2026-05-06 13:08 | 50.04888 | 8.59758 | 368 ft | 8 kts | 250° |
| 2026-05-06 13:08 | 50.04866 | 8.59665 | 368 ft | 10 kts | 249° |
| 2026-05-06 13:09 | 50.04845 | 8.59547 | 368 ft | 13 kts | 271° |
| 2026-05-06 13:09 | 50.04870 | 8.59401 | 367 ft | 15 kts | 274° |
| 2026-05-06 13:09 | 50.04838 | 8.59234 | 366 ft | 17 kts | 249° |
| 2026-05-06 13:09 | 50.04794 | 8.59052 | 366 ft | 19 kts | 250° |
| 2026-05-06 13:10 | 50.04750 | 8.58868 | 368 ft | 10 kts | 249° |
| 2026-05-06 13:10 | 50.04715 | 8.58774 | 367 ft | 10 kts | 206° |
| 2026-05-06 13:10 | 50.04648 | 8.58758 | 368 ft | 10 kts | 186° |
| 2026-05-06 13:10 | 50.04583 | 8.58713 | 369 ft | 11 kts | 220° |
| 2026-05-06 13:11 | 50.04515 | 8.58662 | 369 ft | 10 kts | 205° |
| 2026-05-06 13:11 | 50.04493 | 8.58616 | 368 ft | 0 kts | 250° |
| 2026-05-06 13:11 | 50.04493 | 8.58615 | 368 ft | 1 kts | 250° |
| 2026-05-06 13:11 | 50.04450 | 8.58432 | 367 ft | 55 kts | 250° |
| 2026-05-06 13:12 | 50.04216 | 8.57460 | 363 ft | 134 kts | 250° |
| 2026-05-06 13:12 | 50.03849 | 8.55927 | 886 ft | 160 kts | 249° |
| 2026-05-06 13:12 | 50.03477 | 8.54323 | 1857 ft | 154 kts | 250° |
| 2026-05-06 13:12 | 50.03129 | 8.52764 | 2721 ft | 151 kts | 249° |
| 2026-05-06 13:13 | 50.02762 | 8.51254 | 3537 ft | 147 kts | 245° |
| 2026-05-06 13:13 | 50.02180 | 8.50005 | 4229 ft | 150 kts | 222° |
| 2026-05-06 13:13 | 50.01214 | 8.49194 | 4749 ft | 163 kts | 200° |
| 2026-05-06 13:13 | 50.00099 | 8.48667 | 5308 ft | 172 kts | 197° |
| 2026-05-06 13:14 | 49.98935 | 8.48160 | 5829 ft | 183 kts | 197° |
| 2026-05-06 13:14 | 49.97590 | 8.47644 | 6082 ft | 217 kts | 193° |
| 2026-05-06 13:14 | 49.96017 | 8.46971 | 6353 ft | 248 kts | 203° |
| 2026-05-06 13:14 | 49.94443 | 8.45606 | 6864 ft | 266 kts | 217° |
| 2026-05-06 13:15 | 49.93098 | 8.43589 | 7606 ft | 272 kts | 231° |
| 2026-05-06 13:15 | 49.92092 | 8.41073 | 8394 ft | 277 kts | 245° |
| 2026-05-06 13:15 | 49.91490 | 8.38220 | 9148 ft | 281 kts | 258° |
| 2026-05-06 13:15 | 49.91330 | 8.35178 | 9905 ft | 284 kts | 271° |
| 2026-05-06 13:16 | 49.91636 | 8.32132 | 10638 ft | 288 kts | 284° |
| 2026-05-06 13:16 | 49.92395 | 8.29225 | 11335 ft | 295 kts | 297° |
| 2026-05-06 13:16 | 49.93579 | 8.26597 | 12060 ft | 300 kts | 309° |
| 2026-05-06 13:16 | 49.95128 | 8.24408 | 12814 ft | 304 kts | 322° |
| 2026-05-06 13:17 | 49.96989 | 8.22713 | 13272 ft | 320 kts | 334° |
| 2026-05-06 13:17 | 49.99151 | 8.21578 | 13704 ft | 335 kts | 346° |
| 2026-05-06 13:17 | 50.01484 | 8.21138 | 14374 ft | 341 kts | 358° |
| 2026-05-06 13:17 | 50.03854 | 8.21422 | 15095 ft | 345 kts | 9° |
| 2026-05-06 13:18 | 50.06178 | 8.22424 | 15815 ft | 349 kts | 20° |
| 2026-05-06 13:18 | 50.08362 | 8.24112 | 16509 ft | 353 kts | 32° |
| 2026-05-06 13:18 | 50.10378 | 8.26319 | 17193 ft | 356 kts | 32° |
| 2026-05-06 13:18 | 50.12698 | 8.27642 | 17856 ft | 359 kts | 6° |
| 2026-05-06 13:19 | 50.15192 | 8.27790 | 18568 ft | 361 kts | 3° |
| 2026-05-06 13:19 | 50.17713 | 8.28087 | 19254 ft | 365 kts | 2° |
| 2026-05-06 13:19 | 50.20267 | 8.28255 | 19950 ft | 369 kts | 1° |
| 2026-05-06 13:19 | 50.22844 | 8.28368 | 20663 ft | 372 kts | 0° |
| 2026-05-06 13:20 | 50.25441 | 8.28463 | 21326 ft | 375 kts | 0° |
| 2026-05-06 13:20 | 50.28071 | 8.28548 | 21946 ft | 379 kts | 360° |
| 2026-05-06 13:20 | 50.30719 | 8.28627 | 22568 ft | 382 kts | 360° |
| 2026-05-06 13:20 | 50.33392 | 8.28709 | 23165 ft | 386 kts | 360° |
| 2026-05-06 13:21 | 50.36089 | 8.28791 | 23771 ft | 389 kts | 360° |
| 2026-05-06 13:21 | 50.38806 | 8.28873 | 24391 ft | 393 kts | 360° |
| 2026-05-06 13:21 | 50.41551 | 8.28957 | 24984 ft | 397 kts | 360° |
| 2026-05-06 13:21 | 50.44332 | 8.29040 | 25536 ft | 401 kts | 360° |
| 2026-05-06 13:22 | 50.47129 | 8.29122 | 26039 ft | 405 kts | 360° |
| 2026-05-06 13:22 | 50.49961 | 8.29204 | 26510 ft | 409 kts | 360° |
| 2026-05-06 13:22 | 50.52815 | 8.29287 | 26972 ft | 412 kts | 360° |
| 2026-05-06 13:22 | 50.55695 | 8.29372 | 27404 ft | 416 kts | 360° |
| 2026-05-06 13:23 | 50.58592 | 8.29455 | 27856 ft | 417 kts | 360° |
| 2026-05-06 13:23 | 50.61542 | 8.29539 | 27891 ft | 431 kts | 360° |
| 2026-05-06 13:23 | 50.64582 | 8.29626 | 27903 ft | 444 kts | 360° |
| 2026-05-06 13:23 | 50.67706 | 8.29720 | 27815 ft | 453 kts | 360° |
| 2026-05-06 13:24 | 50.70828 | 8.29816 | 27769 ft | 456 kts | 0° |
| 2026-05-06 13:24 | 50.74003 | 8.29909 | 27779 ft | 457 kts | 0° |
| 2026-05-06 13:24 | 50.77193 | 8.30004 | 27775 ft | 458 kts | 360° |
| 2026-05-06 13:24 | 50.80350 | 8.29490 | 27784 ft | 456 kts | 343° |
| 2026-05-06 13:25 | 50.83256 | 8.27546 | 27807 ft | 454 kts | 329° |
| 2026-05-06 13:25 | 50.85963 | 8.24973 | 27766 ft | 454 kts | 327° |
| 2026-05-06 13:25 | 50.88650 | 8.22370 | 27770 ft | 453 kts | 327° |
| 2026-05-06 13:25 | 50.91356 | 8.19823 | 27773 ft | 453 kts | 328° |
| 2026-05-06 13:26 | 50.94080 | 8.17296 | 27781 ft | 453 kts | 328° |
| 2026-05-06 13:26 | 50.96801 | 8.14790 | 27787 ft | 453 kts | 328° |
| 2026-05-06 13:26 | 50.99533 | 8.12276 | 27778 ft | 453 kts | 328° |
| 2026-05-06 13:26 | 51.02261 | 8.09769 | 27785 ft | 453 kts | 329° |
| 2026-05-06 13:27 | 51.04990 | 8.07262 | 27784 ft | 452 kts | 329° |
| 2026-05-06 13:27 | 51.07712 | 8.04758 | 27789 ft | 452 kts | 329° |
| 2026-05-06 13:27 | 51.10440 | 8.02246 | 27789 ft | 452 kts | 329° |
| 2026-05-06 13:27 | 51.13161 | 7.99738 | 27788 ft | 452 kts | 329° |
| 2026-05-06 13:28 | 51.15845 | 7.97260 | 27799 ft | 452 kts | 329° |
| 2026-05-06 13:28 | 51.18561 | 7.94751 | 27807 ft | 451 kts | 329° |
| 2026-05-06 13:28 | 51.21276 | 7.92240 | 27819 ft | 451 kts | 329° |
| 2026-05-06 13:28 | 51.23989 | 7.89724 | 27815 ft | 451 kts | 329° |
| 2026-05-06 13:29 | 51.26696 | 7.87204 | 27818 ft | 451 kts | 329° |
| 2026-05-06 13:29 | 51.29404 | 7.84689 | 27814 ft | 450 kts | 329° |
| 2026-05-06 13:29 | 51.32110 | 7.82169 | 27828 ft | 450 kts | 329° |
| 2026-05-06 13:29 | 51.34817 | 7.79643 | 27824 ft | 450 kts | 329° |
| 2026-05-06 13:30 | 51.37524 | 7.77118 | 27823 ft | 450 kts | 329° |
| 2026-05-06 13:30 | 51.40229 | 7.74590 | 27823 ft | 450 kts | 329° |
| 2026-05-06 13:30 | 51.42937 | 7.72065 | 27830 ft | 450 kts | 329° |
| 2026-05-06 13:30 | 51.45641 | 7.69533 | 27832 ft | 450 kts | 329° |
| 2026-05-06 13:31 | 51.48349 | 7.66989 | 27834 ft | 450 kts | 329° |
| 2026-05-06 13:31 | 51.51047 | 7.64446 | 27831 ft | 450 kts | 329° |
| 2026-05-06 13:31 | 51.53747 | 7.61905 | 27834 ft | 450 kts | 329° |
| 2026-05-06 13:31 | 51.56450 | 7.59358 | 27835 ft | 450 kts | 329° |
| 2026-05-06 13:32 | 51.59151 | 7.56808 | 27834 ft | 450 kts | 329° |
| 2026-05-06 13:32 | 51.61851 | 7.54258 | 27833 ft | 450 kts | 329° |
| 2026-05-06 13:32 | 51.64549 | 7.51708 | 27835 ft | 450 kts | 329° |
| 2026-05-06 13:32 | 51.67245 | 7.49153 | 27834 ft | 450 kts | 329° |
| 2026-05-06 13:33 | 51.69943 | 7.46591 | 27834 ft | 450 kts | 329° |
| 2026-05-06 13:33 | 51.72603 | 7.44063 | 27847 ft | 450 kts | 329° |
| 2026-05-06 13:33 | 51.75299 | 7.41502 | 27842 ft | 450 kts | 329° |
| 2026-05-06 13:33 | 51.77997 | 7.38929 | 27843 ft | 450 kts | 329° |
| 2026-05-06 13:34 | 51.80692 | 7.36354 | 27843 ft | 450 kts | 329° |
| 2026-05-06 13:34 | 51.83385 | 7.33779 | 27844 ft | 450 kts | 329° |
| 2026-05-06 13:34 | 51.86077 | 7.31207 | 27853 ft | 450 kts | 329° |
| 2026-05-06 13:34 | 51.88768 | 7.28622 | 27852 ft | 450 kts | 329° |
| 2026-05-06 13:35 | 51.91460 | 7.26039 | 27852 ft | 450 kts | 329° |
| 2026-05-06 13:35 | 51.94151 | 7.23454 | 27853 ft | 450 kts | 329° |
| 2026-05-06 13:35 | 51.96841 | 7.20867 | 27852 ft | 450 kts | 329° |
| 2026-05-06 13:35 | 51.99528 | 7.18276 | 27853 ft | 450 kts | 329° |
| 2026-05-06 13:36 | 52.02218 | 7.15679 | 27852 ft | 449 kts | 329° |
| 2026-05-06 13:36 | 52.04904 | 7.13082 | 27853 ft | 450 kts | 329° |
| 2026-05-06 13:36 | 52.07574 | 7.10495 | 27622 ft | 440 kts | 329° |
| 2026-05-06 13:36 | 52.10154 | 7.07994 | 27331 ft | 422 kts | 329° |
| 2026-05-06 13:37 | 52.12622 | 7.05598 | 27487 ft | 408 kts | 329° |
| 2026-05-06 13:37 | 52.15075 | 7.03206 | 27425 ft | 414 kts | 329° |
| 2026-05-06 13:37 | 52.17541 | 7.00806 | 27279 ft | 411 kts | 329° |
| 2026-05-06 13:37 | 52.19977 | 6.98358 | 26939 ft | 413 kts | 323° |
| 2026-05-06 13:38 | 52.22082 | 6.95237 | 26603 ft | 411 kts | 313° |
| 2026-05-06 13:38 | 52.23984 | 6.91767 | 25998 ft | 407 kts | 310° |
| 2026-05-06 13:38 | 52.25810 | 6.88274 | 25416 ft | 402 kts | 310° |
| 2026-05-06 13:38 | 52.27616 | 6.84839 | 24879 ft | 396 kts | 310° |
| 2026-05-06 13:39 | 52.29405 | 6.81462 | 24357 ft | 392 kts | 310° |
| 2026-05-06 13:39 | 52.31162 | 6.78157 | 23846 ft | 389 kts | 310° |
| 2026-05-06 13:39 | 52.32927 | 6.74841 | 23339 ft | 385 kts | 310° |
| 2026-05-06 13:39 | 52.34655 | 6.71510 | 22828 ft | 383 kts | 308° |
| 2026-05-06 13:40 | 52.36319 | 6.68126 | 22315 ft | 380 kts | 308° |
| 2026-05-06 13:40 | 52.37989 | 6.64727 | 21807 ft | 377 kts | 308° |
| 2026-05-06 13:40 | 52.39605 | 6.61444 | 21321 ft | 374 kts | 308° |
| 2026-05-06 13:40 | 52.41234 | 6.58143 | 20830 ft | 371 kts | 308° |
| 2026-05-06 13:41 | 52.42852 | 6.54869 | 20340 ft | 369 kts | 308° |
| 2026-05-06 13:41 | 52.44458 | 6.51614 | 19851 ft | 366 kts | 308° |
| 2026-05-06 13:41 | 52.46007 | 6.48324 | 19358 ft | 363 kts | 301° |
| 2026-05-06 13:41 | 52.46929 | 6.44521 | 18917 ft | 359 kts | 281° |
| 2026-05-06 13:42 | 52.47208 | 6.40468 | 18439 ft | 357 kts | 274° |
| 2026-05-06 13:42 | 52.47374 | 6.36417 | 17939 ft | 355 kts | 274° |
| 2026-05-06 13:42 | 52.47553 | 6.32388 | 17469 ft | 352 kts | 274° |
| 2026-05-06 13:42 | 52.47737 | 6.28402 | 17004 ft | 350 kts | 274° |
| 2026-05-06 13:43 | 52.47948 | 6.24440 | 16540 ft | 348 kts | 275° |
| 2026-05-06 13:43 | 52.48162 | 6.20493 | 16076 ft | 345 kts | 275° |
| 2026-05-06 13:43 | 52.48364 | 6.16581 | 15617 ft | 343 kts | 275° |
| 2026-05-06 13:43 | 52.48554 | 6.12685 | 15163 ft | 341 kts | 275° |
| 2026-05-06 13:44 | 52.48742 | 6.08819 | 14715 ft | 339 kts | 275° |
| 2026-05-06 13:44 | 52.48924 | 6.05023 | 14262 ft | 330 kts | 275° |
| 2026-05-06 13:44 | 52.49098 | 6.01318 | 13827 ft | 322 kts | 275° |
| 2026-05-06 13:44 | 52.49266 | 5.97702 | 13409 ft | 314 kts | 275° |
| 2026-05-06 13:45 | 52.49430 | 5.94168 | 12993 ft | 308 kts | 275° |
| 2026-05-06 13:45 | 52.49746 | 5.87301 | 12187 ft | 297 kts | 275° |
| 2026-05-06 13:45 | 52.49898 | 5.83944 | 11799 ft | 293 kts | 275° |
| 2026-05-06 13:46 | 52.50051 | 5.80610 | 11414 ft | 292 kts | 275° |
| 2026-05-06 13:46 | 52.50203 | 5.77283 | 11029 ft | 292 kts | 275° |
| 2026-05-06 13:46 | 52.50353 | 5.73951 | 10640 ft | 292 kts | 275° |
| 2026-05-06 13:46 | 52.50502 | 5.70629 | 10259 ft | 292 kts | 275° |
| 2026-05-06 13:47 | 52.50649 | 5.67310 | 9871 ft | 291 kts | 275° |
| 2026-05-06 13:47 | 52.50797 | 5.64000 | 9486 ft | 291 kts | 275° |
| 2026-05-06 13:47 | 52.50941 | 5.60695 | 9100 ft | 290 kts | 275° |
| 2026-05-06 13:47 | 52.50931 | 5.57412 | 8704 ft | 289 kts | 261° |
| 2026-05-06 13:48 | 52.50204 | 5.54353 | 8361 ft | 288 kts | 242° |
| 2026-05-06 13:48 | 52.49174 | 5.51537 | 7949 ft | 288 kts | 238° |
| 2026-05-06 13:48 | 52.48123 | 5.48795 | 7558 ft | 286 kts | 238° |
| 2026-05-06 13:48 | 52.47068 | 5.45996 | 7179 ft | 283 kts | 239° |
| 2026-05-06 13:49 | 52.46044 | 5.43246 | 6800 ft | 281 kts | 239° |
| 2026-05-06 13:49 | 52.45032 | 5.40512 | 6432 ft | 279 kts | 239° |
| 2026-05-06 13:49 | 52.44026 | 5.37806 | 6060 ft | 277 kts | 239° |
| 2026-05-06 13:49 | 52.43049 | 5.35140 | 5704 ft | 276 kts | 239° |
| 2026-05-06 13:50 | 52.42061 | 5.32456 | 5341 ft | 274 kts | 239° |
| 2026-05-06 13:50 | 52.41065 | 5.29795 | 4977 ft | 274 kts | 239° |
| 2026-05-06 13:50 | 52.40079 | 5.27131 | 4613 ft | 272 kts | 239° |
| 2026-05-06 13:50 | 52.39085 | 5.24504 | 4297 ft | 269 kts | 238° |
| 2026-05-06 13:51 | 52.38111 | 5.21937 | 4316 ft | 264 kts | 238° |
| 2026-05-06 13:51 | 52.37460 | 5.20245 | 4312 ft | 258 kts | 238° |
| 2026-05-06 13:51 | 52.36484 | 5.17780 | 4339 ft | 258 kts | 237° |
| 2026-05-06 13:51 | 52.35531 | 5.15386 | 4330 ft | 249 kts | 238° |
| 2026-05-06 13:52 | 52.34598 | 5.13052 | 4216 ft | 246 kts | 237° |
| 2026-05-06 13:52 | 52.33648 | 5.10669 | 4067 ft | 254 kts | 237° |
| 2026-05-06 13:52 | 52.32677 | 5.08224 | 3914 ft | 258 kts | 237° |
| 2026-05-06 13:52 | 52.31697 | 5.05759 | 3771 ft | 259 kts | 238° |
| 2026-05-06 13:53 | 52.30711 | 5.03290 | 3618 ft | 259 kts | 237° |
| 2026-05-06 13:53 | 52.29720 | 5.00819 | 3464 ft | 259 kts | 237° |
| 2026-05-06 13:53 | 52.28738 | 4.98352 | 3312 ft | 259 kts | 237° |
| 2026-05-06 13:53 | 52.27755 | 4.95889 | 3165 ft | 258 kts | 237° |
| 2026-05-06 13:54 | 52.26774 | 4.93436 | 3019 ft | 257 kts | 237° |
| 2026-05-06 13:54 | 52.25795 | 4.90996 | 2877 ft | 257 kts | 237° |
| 2026-05-06 13:54 | 52.24822 | 4.88570 | 2848 ft | 258 kts | 237° |
| 2026-05-06 13:54 | 52.23839 | 4.86116 | 2687 ft | 258 kts | 237° |
| 2026-05-06 13:55 | 52.22872 | 4.83708 | 2517 ft | 249 kts | 237° |
| 2026-05-06 13:55 | 52.21941 | 4.81385 | 2365 ft | 240 kts | 237° |
| 2026-05-06 13:55 | 52.21045 | 4.79135 | 2207 ft | 233 kts | 237° |
| 2026-05-06 13:55 | 52.20184 | 4.76977 | 2056 ft | 228 kts | 237° |
| 2026-05-06 13:56 | 52.19323 | 4.74820 | 1900 ft | 226 kts | 237° |
| 2026-05-06 13:56 | 52.18475 | 4.72698 | 1862 ft | 219 kts | 237° |
| 2026-05-06 13:56 | 52.17648 | 4.70615 | 1886 ft | 219 kts | 237° |
| 2026-05-06 13:56 | 52.16816 | 4.68516 | 1906 ft | 221 kts | 240° |
| 2026-05-06 13:57 | 52.16384 | 4.66132 | 1763 ft | 223 kts | 272° |
| 2026-05-06 13:57 | 52.16794 | 4.63770 | 1624 ft | 212 kts | 297° |
| 2026-05-06 13:57 | 52.17701 | 4.62063 | 1451 ft | 194 kts | 330° |
| 2026-05-06 13:57 | 52.18846 | 4.61026 | 1380 ft | 181 kts | 332° |
| 2026-05-06 13:58 | 52.19922 | 4.60036 | 1406 ft | 176 kts | 332° |
| 2026-05-06 13:58 | 52.20988 | 4.59053 | 1406 ft | 176 kts | 332° |
| 2026-05-06 13:58 | 52.22103 | 4.58464 | 1394 ft | 162 kts | 4° |
| 2026-05-06 13:58 | 52.23064 | 4.59171 | 1395 ft | 150 kts | 40° |
| 2026-05-06 13:59 | 52.23775 | 4.60391 | 1409 ft | 149 kts | 59° |
| 2026-05-06 13:59 | 52.24284 | 4.61840 | 1417 ft | 147 kts | 56° |
| 2026-05-06 13:59 | 52.24866 | 4.63182 | 1424 ft | 143 kts | 54° |
| 2026-05-06 13:59 | 52.25406 | 4.64567 | 1309 ft | 147 kts | 59° |
| 2026-05-06 14:00 | 52.25934 | 4.65972 | 1137 ft | 146 kts | 58° |
| 2026-05-06 14:00 | 52.26475 | 4.67365 | 934 ft | 143 kts | 59° |
| 2026-05-06 14:00 | 52.26998 | 4.68758 | 702 ft | 143 kts | 58° |
| 2026-05-06 14:00 | 52.27524 | 4.70131 | 506 ft | 143 kts | 57° |
| 2026-05-06 14:01 | 52.28047 | 4.71499 | 349 ft | 141 kts | 57° |
| 2026-05-06 14:01 | 52.28571 | 4.72850 | 153 ft | 141 kts | 58° |
| 2026-05-06 14:01 | 52.29091 | 4.74191 | 9 ft | 136 kts | 58° |
| 2026-05-06 14:01 | 52.29541 | 4.75365 | -4 ft | 107 kts | 58° |
| 2026-05-06 14:02 | 52.29861 | 4.76197 | -6 ft | 78 kts | 59° |
| 2026-05-06 14:02 | 52.30089 | 4.76591 | -4 ft | 27 kts | 27° |
| 2026-05-06 14:02 | 52.30242 | 4.76727 | -3 ft | 21 kts | 24° |
| 2026-05-06 14:02 | 52.30350 | 4.76678 | -3 ft | 16 kts | 280° |
| 2026-05-06 14:03 | 52.30308 | 4.76558 | -3 ft | 12 kts | 237° |
| 2026-05-06 14:03 | 52.30261 | 4.76434 | -3 ft | 15 kts | 238° |
| 2026-05-06 14:03 | 52.30205 | 4.76280 | -3 ft | 10 kts | 252° |
| 2026-05-06 14:03 | 52.30221 | 4.76237 | -3 ft | 6 kts | 330° |
| 2026-05-06 14:04 | 52.30265 | 4.76196 | -3 ft | 9 kts | 330° |
| 2026-05-06 14:04 | 52.30324 | 4.76138 | -3 ft | 11 kts | 327° |
| 2026-05-06 14:04 | 52.30386 | 4.76075 | -3 ft | 2 kts | 340° |
| 2026-05-06 14:04 | 52.30403 | 4.76087 | -3 ft | 4 kts | 46° |
| 2026-05-06 14:05 | 52.30418 | 4.76126 | -3 ft | 0 kts | 58° |
| 2026-05-06 14:05 | 52.30419 | 4.76128 | -3 ft | 0 kts | 58° |